Terminal Aerodrome Forecast
Issued by NWS

Home | Current Version | Previous Version | Text Only | Print | Product List | Glossary On
Versions: 1 2 3 4 5 6 7 8 9 10 11 12 13 14 15 16
890
FTUS42 KTBW 141140
TAFLAL
TAF
KLAL 141140Z 1412/1512 04008KT P6SM SKC
     FM141500 07010KT P6SM FEW300
     FM141800 09009KT P6SM FEW030 FEW250
     FM142200 09006KT P6SM SCT035 SCT300=

USA.gov is the U.S. government's official web portal to all federal, state and local government web resources and services.